Time;durP1;ratioP1;P1;durP2;ratioP2;P2;SDS_P1;SDS_P2;PMS_P1;PMS_P2;Temp;Humidity;BMP_temperature;BMP_pressure;BME280_temperature;BME280_humidity;BME280_pressure;Samples;Min_cycle;Max_cycle;Signal;HPM_P1;HPM_P2
2024/01/12 00:01:37;;;;;;;14.32;8.88;;;22.50;44.50;;;;;;5113701;28;20032;-32
2024/01/12 00:04:03;;;;;;;12.10;5.57;;;22.50;44.40;;;;;;5112551;28;20054;-31
2024/01/12 00:06:29;;;;;;;7.75;4.53;;;22.60;44.50;;;;;;5121368;28;20024;-32
2024/01/12 00:08:55;;;;;;;9.98;5.70;;;22.60;44.30;;;;;;5117870;28;20039;-34
2024/01/12 00:11:22;;;;;;;7.18;4.05;;;22.60;44.40;;;;;;5118620;28;20485;-32
2024/01/12 00:13:49;;;;;;;9.95;4.53;;;22.60;44.40;;;;;;5117835;28;20043;-33
2024/01/12 00:16:15;;;;;;;8.63;4.07;;;22.60;44.40;;;;;;5112824;28;20134;-34
2024/01/12 00:18:41;;;;;;;5.50;2.83;;;22.60;44.60;;;;;;5115305;27;20043;-35
2024/01/12 00:21:08;;;;;;;4.97;3.08;;;22.60;44.40;;;;;;5112978;28;20563;-34
2024/01/12 00:23:34;;;;;;;3.28;2.35;;;22.60;44.40;;;;;;5112001;27;20044;-34
2024/01/12 00:26:00;;;;;;;3.70;2.50;;;22.60;44.30;;;;;;5111530;28;20028;-35
2024/01/12 00:28:30;;;;;;;4.32;2.30;;;22.60;44.30;;;;;;5114301;28;20093;-35
2024/01/12 00:30:57;;;;;;;2.83;2.10;;;22.60;44.40;;;;;;5109353;28;20039;-33
2024/01/12 00:33:23;;;;;;;2.40;1.50;;;22.60;44.40;;;;;;5110351;28;20020;-36
2024/01/12 00:35:49;;;;;;;3.40;1.42;;;22.60;44.10;;;;;;5114745;28;20024;-33
2024/01/12 00:38:15;;;;;;;2.85;1.50;;;22.60;44.00;;;;;;5120805;28;20070;-30
2024/01/12 00:40:41;;;;;;;2.47;1.77;;;22.60;44.00;;;;;;5108007;28;22664;-29
2024/01/12 00:43:08;;;;;;;3.78;1.77;;;22.60;44.20;;;;;;5115001;28;20039;-34
2024/01/12 00:45:34;;;;;;;2.30;1.58;;;22.60;44.20;;;;;;5107629;28;20047;-31
2024/01/12 00:48:00;;;;;;;1.93;1.30;;;22.60;44.30;;;;;;5112199;28;20104;-33
2024/01/12 00:50:26;;;;;;;3.42;1.55;;;22.60;44.30;;;;;;5111175;28;20023;-34
2024/01/12 00:52:53;;;;;;;1.58;1.10;;;22.60;44.10;;;;;;5111791;28;20027;-30
2024/01/12 00:55:19;;;;;;;3.55;1.70;;;22.60;44.00;;;;;;5115226;28;20388;-32
2024/01/12 00:57:45;;;;;;;3.08;1.35;;;22.60;44.10;;;;;;5109601;28;20042;-33
2024/01/12 01:00:11;;;;;;;1.17;0.80;;;22.60;44.10;;;;;;5111083;28;20042;-33
2024/01/12 01:02:38;;;;;;;4.13;1.52;;;22.70;44.10;;;;;;5109761;28;20043;-32
2024/01/12 01:05:04;;;;;;;2.25;1.35;;;22.60;44.20;;;;;;5115376;28;20036;-35
2024/01/12 01:07:31;;;;;;;2.17;1.00;;;22.60;44.30;;;;;;5106380;28;20063;-34
2024/01/12 01:09:57;;;;;;;1.67;1.20;;;22.60;44.20;;;;;;5105740;28;20287;-33
2024/01/12 01:12:23;;;;;;;1.92;1.38;;;22.60;44.00;;;;;;5104240;28;20035;-32
2024/01/12 01:14:49;;;;;;;1.80;1.20;;;22.60;43.90;;;;;;5108704;28;20028;-34
2024/01/12 01:17:16;;;;;;;1.48;1.10;;;22.60;43.90;;;;;;5108546;28;20091;-35
2024/01/12 01:19:42;;;;;;;1.15;1.05;;;22.60;43.90;;;;;;5110297;28;20039;-32
2024/01/12 01:22:08;;;;;;;1.48;1.10;;;22.60;44.00;;;;;;5107780;28;20801;-30
2024/01/12 01:24:34;;;;;;;2.60;1.30;;;22.60;44.20;;;;;;5108993;28;20228;-30
2024/01/12 01:27:00;;;;;;;1.88;1.40;;;22.60;44.20;;;;;;5111494;28;20248;-30
2024/01/12 01:29:26;;;;;;;3.08;1.30;;;22.60;44.20;;;;;;5106516;28;20127;-34
2024/01/12 01:31:52;;;;;;;4.32;0.95;;;22.50;44.00;;;;;;5106627;28;20047;-33
2024/01/12 01:34:18;;;;;;;2.92;0.90;;;22.60;44.10;;;;;;5106565;28;20035;-35
2024/01/12 01:36:45;;;;;;;3.28;1.10;;;22.60;44.00;;;;;;5112078;28;20104;-31
2024/01/12 01:39:11;;;;;;;1.42;1.02;;;22.60;44.10;;;;;;5109316;28;20032;-30
2024/01/12 01:41:37;;;;;;;1.60;1.00;;;22.60;44.10;;;;;;5108169;28;20059;-32
2024/01/12 01:44:03;;;;;;;1.75;1.05;;;22.60;43.90;;;;;;5110902;28;20036;-33
2024/01/12 01:46:29;;;;;;;2.05;0.70;;;22.50;43.80;;;;;;5106741;28;20054;-34
2024/01/12 01:48:56;;;;;;;3.90;1.10;;;22.50;44.00;;;;;;5104860;28;20032;-32
2024/01/12 01:51:22;;;;;;;2.13;0.93;;;22.60;43.90;;;;;;5107031;28;20041;-36
2024/01/12 01:53:49;;;;;;;1.52;0.90;;;22.60;43.80;;;;;;5105561;28;20085;-33
2024/01/12 01:56:15;;;;;;;2.30;1.20;;;22.60;44.00;;;;;;5109701;28;20051;-32
2024/01/12 01:58:42;;;;;;;2.33;1.10;;;22.60;44.10;;;;;;5109130;28;20107;-30
2024/01/12 02:01:08;;;;;;;1.20;0.90;;;22.60;43.90;;;;;;5101823;28;20099;-34
2024/01/12 02:03:34;;;;;;;1.33;0.93;;;22.50;43.80;;;;;;5103628;28;20122;-30
2024/01/12 02:06:00;;;;;;;1.98;1.00;;;22.50;44.00;;;;;;5106435;28;20020;-34
2024/01/12 02:08:26;;;;;;;1.08;0.80;;;22.60;44.00;;;;;;5120888;28;20047;-31
2024/01/12 02:10:53;;;;;;;1.08;0.85;;;22.60;43.80;;;;;;5112776;28;20019;-33
2024/01/12 02:13:19;;;;;;;1.45;0.93;;;22.60;43.90;;;;;;5117117;28;20032;-34
2024/01/12 02:15:45;;;;;;;1.07;0.90;;;22.60;43.90;;;;;;5114931;28;20044;-33
2024/01/12 02:18:11;;;;;;;1.60;0.70;;;22.50;43.90;;;;;;5099898;28;20283;-31
2024/01/12 02:20:38;;;;;;;1.50;1.10;;;22.50;43.70;;;;;;5112546;28;20028;-33
2024/01/12 02:23:04;;;;;;;1.08;0.82;;;22.50;43.90;;;;;;5112402;28;20024;-34
2024/01/12 02:25:30;;;;;;;1.80;1.00;;;22.60;43.80;;;;;;5118868;27;20023;-33
2024/01/12 02:27:56;;;;;;;1.38;1.25;;;22.60;43.80;;;;;;5120358;28;20043;-33
2024/01/12 02:30:22;;;;;;;304.67;99.20;;;22.60;43.90;;;;;;5119388;27;20529;-35
2024/01/12 02:32:49;;;;;;;297.17;89.45;;;22.60;44.10;;;;;;5115586;28;20036;-34
2024/01/12 02:35:15;;;;;;;253.65;70.65;;;22.50;44.10;;;;;;5125405;27;20590;-32
2024/01/12 02:37:41;;;;;;;160.95;46.33;;;22.50;44.20;;;;;;5122478;28;20050;-31
2024/01/12 02:40:07;;;;;;;85.45;26.33;;;22.50;44.10;;;;;;5118908;28;20035;-31
2024/01/12 02:42:33;;;;;;;67.43;20.77;;;22.50;44.00;;;;;;5118422;28;20028;-30
2024/01/12 02:45:00;;;;;;;56.25;18.83;;;22.50;43.90;;;;;;5122516;28;20019;-36
2024/01/12 02:47:26;;;;;;;58.33;17.27;;;22.50;43.90;;;;;;5118557;27;20019;-33
2024/01/12 02:49:52;;;;;;;51.00;16.67;;;22.50;44.00;;;;;;5119571;28;20035;-34
2024/01/12 02:52:18;;;;;;;40.80;12.93;;;22.40;44.10;;;;;;5115848;28;20047;-32
2024/01/12 02:54:44;;;;;;;27.80;9.75;;;22.40;44.10;;;;;;5117455;28;20032;-31
2024/01/12 02:57:12;;;;;;;21.23;7.22;;;22.40;44.00;;;;;;5120515;27;20020;-34
2024/01/12 02:59:38;;;;;;;;;;;22.40;43.90;;;;;;5119688;28;20047;-34
2024/01/12 03:02:04;;;;;;;19.52;7.03;;;22.40;43.90;;;;;;5114319;28;19911;-30
2024/01/12 03:04:30;;;;;;;18.75;7.20;;;22.40;43.90;;;;;;5118050;28;20028;-36
2024/01/12 03:06:56;;;;;;;17.20;6.43;;;22.40;43.90;;;;;;5124480;28;20023;-34
2024/01/12 03:09:22;;;;;;;11.52;4.78;;;22.30;43.90;;;;;;5121979;28;20083;-35
2024/01/12 03:11:49;;;;;;;12.05;4.50;;;22.30;43.90;;;;;;5113123;28;20024;-34
2024/01/12 03:14:15;;;;;;;10.38;3.75;;;22.40;43.90;;;;;;5117146;28;20031;-35
2024/01/12 03:16:41;;;;;;;9.07;3.70;;;22.40;43.80;;;;;;5114501;28;20039;-31
2024/01/12 03:19:07;;;;;;;9.48;3.75;;;22.40;43.90;;;;;;5118199;28;20048;-32
2024/01/12 03:21:33;;;;;;;9.95;4.07;;;22.30;43.90;;;;;;5120238;28;20032;-31
2024/01/12 03:24:00;;;;;;;9.65;4.15;;;22.30;43.90;;;;;;5118047;28;20032;-35
2024/01/12 03:26:26;;;;;;;7.50;3.30;;;22.30;43.90;;;;;;5116214;27;20469;-31
2024/01/12 03:28:52;;;;;;;4.68;2.42;;;22.30;43.90;;;;;;5114502;28;20056;-35
2024/01/12 03:31:21;;;;;;;6.03;2.83;;;22.30;43.90;;;;;;5118256;28;20015;-32
2024/01/12 03:33:47;;;;;;;6.00;2.30;;;22.30;43.90;;;;;;5116652;28;20027;-32
2024/01/12 03:36:14;;;;;;;5.47;2.35;;;22.30;43.90;;;;;;5114159;28;20023;-34
2024/01/12 03:38:41;;;;;;;5.63;2.17;;;22.30;44.00;;;;;;5121067;28;20116;-34
2024/01/12 03:41:07;;;;;;;5.47;2.35;;;22.20;44.10;;;;;;5118125;28;20031;-35
2024/01/12 03:43:33;;;;;;;4.40;2.20;;;22.20;44.00;;;;;;5119915;28;20091;-35
2024/01/12 03:45:59;;;;;;;4.90;2.20;;;22.20;44.00;;;;;;5114912;28;20024;-33
2024/01/12 03:48:25;;;;;;;3.63;1.65;;;22.30;43.90;;;;;;5120296;27;20019;-32
2024/01/12 03:50:51;;;;;;;3.33;1.80;;;22.30;43.90;;;;;;5116448;28;20023;-33
2024/01/12 03:53:17;;;;;;;3.30;2.05;;;22.20;44.00;;;;;;5107749;28;20762;-30
2024/01/12 03:55:44;;;;;;;3.70;1.60;;;22.20;44.00;;;;;;5107553;28;20024;-33
2024/01/12 03:58:30;;;;;;;3.85;2.00;;;22.10;44.00;;;;;;5072970;28;20091;-34
2024/01/12 04:00:56;;;;;;;3.15;1.45;;;22.20;44.00;;;;;;5076665;28;20057;-30
2024/01/12 04:03:22;;;;;;;3.55;1.60;;;22.20;44.00;;;;;;5076138;28;20070;-35
2024/01/12 04:05:48;;;;;;;2.75;1.60;;;22.20;44.00;;;;;;5079564;28;20024;-34
2024/01/12 04:08:15;;;;;;;3.22;1.75;;;22.20;44.00;;;;;;5083415;28;20043;-33
2024/01/12 04:10:41;;;;;;;2.42;1.52;;;22.10;44.00;;;;;;5078935;28;20048;-34
2024/01/12 04:13:08;;;;;;;1.75;1.08;;;22.10;44.00;;;;;;5075447;28;20100;-32
2024/01/12 04:15:34;;;;;;;2.30;1.30;;;22.10;44.00;;;;;;5061086;28;20052;-30
2024/01/12 04:18:00;;;;;;;2.17;1.17;;;22.20;44.50;;;;;;5081553;28;20028;-34
2024/01/12 04:20:26;;;;;;;2.78;1.33;;;22.20;44.00;;;;;;5080881;28;20062;-34
2024/01/12 04:22:52;;;;;;;1.95;1.30;;;22.10;43.90;;;;;;5080014;28;20036;-35
2024/01/12 04:25:18;;;;;;;1.75;1.00;;;22.10;44.00;;;;;;5080755;28;20047;-35
2024/01/12 04:27:44;;;;;;;1.88;0.98;;;22.10;44.00;;;;;;5075181;28;20592;-35
2024/01/12 04:30:11;;;;;;;2.50;1.00;;;22.10;44.00;;;;;;5074327;28;20040;-35
2024/01/12 04:32:37;;;;;;;1.98;1.00;;;22.10;43.90;;;;;;5076080;28;20104;-34
2024/01/12 04:35:04;;;;;;;2.10;1.00;;;22.10;43.90;;;;;;5091370;28;20092;-32
2024/01/12 04:37:30;;;;;;;2.10;1.13;;;22.10;43.90;;;;;;5116322;28;20032;-33
2024/01/12 04:39:56;;;;;;;1.77;0.90;;;22.10;43.90;;;;;;5112532;28;20177;-34
2024/01/12 04:42:22;;;;;;;2.15;1.13;;;22.00;44.00;;;;;;5114148;28;20109;-32
2024/01/12 04:44:48;;;;;;;1.10;0.90;;;22.10;44.00;;;;;;5109541;28;20075;-33
2024/01/12 04:47:14;;;;;;;3.28;0.90;;;22.10;43.90;;;;;;5116723;28;20042;-32
2024/01/12 04:49:41;;;;;;;1.00;0.82;;;22.10;43.90;;;;;;5120043;28;20023;-35
2024/01/12 04:52:07;;;;;;;1.63;0.98;;;22.10;43.90;;;;;;5117325;28;20444;-30
2024/01/12 04:54:33;;;;;;;1.77;0.88;;;22.00;43.90;;;;;;5121316;28;20028;-32
2024/01/12 04:56:59;;;;;;;1.88;0.93;;;22.00;44.00;;;;;;5114041;28;20080;-36
2024/01/12 04:59:25;;;;;;;2.03;0.80;;;22.00;44.10;;;;;;5116502;28;20043;-31
2024/01/12 05:01:51;;;;;;;1.67;0.95;;;22.10;43.90;;;;;;5115480;28;20054;-34
2024/01/12 05:04:17;;;;;;;1.75;0.88;;;22.10;43.90;;;;;;5113918;28;20028;-32
2024/01/12 05:06:44;;;;;;;1.88;0.90;;;22.10;43.90;;;;;;5117988;28;20047;-35
2024/01/12 05:09:10;;;;;;;1.17;0.90;;;22.00;43.90;;;;;;5115834;28;20038;-34
2024/01/12 05:11:36;;;;;;;1.20;0.70;;;22.00;43.90;;;;;;5119204;28;20491;-32
2024/01/12 05:14:03;;;;;;;1.25;0.80;;;22.00;43.90;;;;;;5111890;28;20031;-36
2024/01/12 05:16:29;;;;;;;0.70;0.60;;;22.10;43.80;;;;;;5114636;28;20079;-33
2024/01/12 05:18:55;;;;;;;4.68;0.93;;;22.10;43.90;;;;;;5124101;27;20044;-35
2024/01/12 05:21:22;;;;;;;2.90;0.90;;;22.10;43.80;;;;;;5119760;28;20027;-33
2024/01/12 05:23:48;;;;;;;2.10;0.70;;;22.10;43.90;;;;;;5114919;28;20035;-35
2024/01/12 05:26:14;;;;;;;1.80;0.60;;;22.00;44.00;;;;;;5115253;28;20088;-33
2024/01/12 05:28:40;;;;;;;3.70;0.70;;;22.00;44.10;;;;;;5113650;27;20088;-32
2024/01/12 05:31:09;;;;;;;0.80;0.60;;;22.00;44.00;;;;;;5112319;28;20019;-32
2024/01/12 05:33:35;;;;;;;0.90;0.60;;;22.10;43.90;;;;;;5106290;28;20024;-31
2024/01/12 05:36:02;;;;;;;1.10;0.70;;;22.10;43.90;;;;;;5114619;28;20047;-32
2024/01/12 05:38:28;;;;;;;2.15;0.93;;;22.10;44.00;;;;;;5120605;28;20843;-36
2024/01/12 05:40:54;;;;;;;1.77;0.70;;;22.00;43.90;;;;;;5113679;28;20035;-34
2024/01/12 05:43:20;;;;;;;0.82;0.57;;;22.00;44.00;;;;;;5113504;28;20016;-30
2024/01/12 05:45:46;;;;;;;1.75;0.63;;;22.00;43.90;;;;;;5118632;28;20118;-34
2024/01/12 05:48:12;;;;;;;1.48;0.80;;;22.10;43.90;;;;;;5108471;28;20103;-36
2024/01/12 05:50:39;;;;;;;1.42;0.70;;;22.10;43.80;;;;;;5111945;28;20028;-35
2024/01/12 05:53:06;;;;;;;1.40;0.70;;;22.00;43.80;;;;;;5108781;28;20048;-33
2024/01/12 05:55:32;;;;;;;2.25;0.52;;;22.00;43.90;;;;;;5112846;28;20067;-32
2024/01/12 05:57:58;;;;;;;2.70;0.70;;;22.00;43.90;;;;;;5109541;28;20034;-35
2024/01/12 06:00:24;;;;;;;0.70;0.60;;;22.00;43.80;;;;;;5109099;28;20059;-33
2024/01/12 06:02:51;;;;;;;3.08;0.80;;;22.00;43.80;;;;;;5106989;28;20028;-30
2024/01/12 06:05:17;;;;;;;2.05;0.80;;;22.00;43.70;;;;;;5108466;28;20035;-35
2024/01/12 06:07:44;;;;;;;1.45;0.73;;;22.00;43.80;;;;;;5106772;28;20025;-31
2024/01/12 06:10:10;;;;;;;1.52;0.65;;;22.00;43.90;;;;;;5107854;28;20050;-35
2024/01/12 06:12:36;;;;;;;1.00;0.67;;;22.00;43.90;;;;;;5109282;28;20073;-36
2024/01/12 06:15:03;;;;;;;1.20;0.77;;;22.00;43.80;;;;;;5108180;28;20028;-35
2024/01/12 06:17:29;;;;;;;2.35;0.63;;;22.00;43.70;;;;;;5114332;28;20051;-32
2024/01/12 06:19:55;;;;;;;1.33;0.70;;;22.00;43.80;;;;;;5105442;28;20044;-33
2024/01/12 06:22:22;;;;;;;1.02;0.70;;;22.00;43.80;;;;;;5108342;28;20024;-33
2024/01/12 06:24:48;;;;;;;1.00;0.60;;;21.90;43.80;;;;;;5112282;28;20028;-33
2024/01/12 06:27:14;;;;;;;0.90;0.70;;;22.00;43.80;;;;;;5109628;28;20054;-34
2024/01/12 06:29:40;;;;;;;1.00;0.70;;;22.00;43.60;;;;;;5108403;28;20060;-32
2024/01/12 06:32:06;;;;;;;1.05;0.60;;;22.00;43.50;;;;;;5116030;28;20020;-34
2024/01/12 06:34:32;;;;;;;2.40;0.77;;;22.00;43.50;;;;;;5112713;28;20080;-32
2024/01/12 06:36:58;;;;;;;1.48;0.80;;;22.00;43.60;;;;;;5107257;28;20028;-34
2024/01/12 06:39:24;;;;;;;4.05;0.70;;;21.90;43.60;;;;;;5109006;28;20036;-33
2024/01/12 06:41:52;;;;;;;1.08;0.70;;;21.90;43.90;;;;;;5111321;28;20087;-35
2024/01/12 06:44:19;;;;;;;0.80;0.60;;;22.00;43.80;;;;;;5116248;28;20059;-31
2024/01/12 06:46:45;;;;;;;0.70;0.52;;;22.00;43.70;;;;;;5112107;28;20154;-34
2024/01/12 06:49:11;;;;;;;1.50;0.80;;;22.00;43.80;;;;;;5108376;28;20031;-33
2024/01/12 06:51:37;;;;;;;3.03;0.73;;;21.90;43.90;;;;;;5114697;28;20038;-33
2024/01/12 06:54:04;;;;;;;1.20;0.80;;;21.90;43.80;;;;;;5107937;28;20031;-30
2024/01/12 06:56:30;;;;;;;2.05;0.50;;;21.90;43.70;;;;;;5118178;28;20031;-32
2024/01/12 06:58:57;;;;;;;1.50;0.80;;;21.90;43.70;;;;;;5116568;28;20107;-31
2024/01/12 07:01:23;;;;;;;1.23;0.60;;;22.00;43.80;;;;;;5112423;28;20032;-35
2024/01/12 07:03:51;;;;;;;1.38;0.60;;;22.00;43.70;;;;;;5116559;27;20024;-31
2024/01/12 07:06:17;;;;;;;1.15;0.70;;;21.90;43.80;;;;;;5120872;28;20028;-32
2024/01/12 07:08:44;;;;;;;1.23;0.70;;;21.90;43.80;;;;;;5114717;27;20111;-32
2024/01/12 07:11:10;;;;;;;2.10;0.98;;;21.90;43.80;;;;;;5114303;28;20024;-33
2024/01/12 07:13:36;;;;;;;1.15;0.60;;;21.90;43.70;;;;;;5119183;28;20109;-32
2024/01/12 07:16:03;;;;;;;2.47;0.57;;;22.00;43.70;;;;;;5113734;28;20024;-35
2024/01/12 07:18:29;;;;;;;0.83;0.60;;;22.00;43.70;;;;;;5113829;28;20070;-30
2024/01/12 07:20:57;;;;;;;1.20;0.70;;;21.90;43.70;;;;;;5113659;27;20027;-34
2024/01/12 07:23:23;;;;;;;1.05;0.50;;;21.90;43.80;;;;;;5114200;28;20392;-33
2024/01/12 07:25:49;;;;;;;1.75;0.85;;;21.90;43.80;;;;;;5109428;28;20043;-30
2024/01/12 07:28:15;;;;;;;0.70;0.60;;;21.90;43.70;;;;;;5123360;27;20044;-34
2024/01/12 07:30:41;;;;;;;1.00;0.70;;;21.90;43.60;;;;;;5118868;28;20039;-30
2024/01/12 07:33:08;;;;;;;1.08;0.65;;;21.90;43.60;;;;;;5119041;27;20025;-32
2024/01/12 07:35:34;;;;;;;2.57;0.63;;;21.90;43.70;;;;;;5112780;28;20047;-30
2024/01/12 07:38:00;;;;;;;0.65;0.60;;;21.90;43.90;;;;;;5116038;28;20352;-36
2024/01/12 07:40:26;;;;;;;0.85;0.65;;;21.90;44.40;;;;;;5120358;28;20027;-30
2024/01/12 07:42:52;;;;;;;0.50;0.50;;;21.90;43.80;;;;;;5114271;28;20082;-32
2024/01/12 07:45:18;;;;;;;1.75;0.68;;;21.90;43.70;;;;;;5116590;27;20091;-35
2024/01/12 07:47:45;;;;;;;0.80;0.50;;;21.90;43.70;;;;;;5147199;27;20059;-33
2024/01/12 07:50:11;;;;;;;0.77;0.60;;;21.90;43.90;;;;;;5112895;28;20034;-33
2024/01/12 07:52:37;;;;;;;1.15;0.60;;;21.80;44.00;;;;;;5111849;28;20035;-34
2024/01/12 07:55:04;;;;;;;0.95;0.50;;;21.90;44.00;;;;;;5107430;28;20028;-30
2024/01/12 07:57:30;;;;;;;1.10;0.50;;;21.90;43.90;;;;;;5111257;27;20026;-34
2024/01/12 07:59:56;;;;;;;4.60;0.70;;;21.90;43.80;;;;;;5122913;27;20142;-31
2024/01/12 08:02:23;;;;;;;1.52;0.88;;;21.90;43.70;;;;;;5116634;28;20027;-35
2024/01/12 08:04:49;;;;;;;2.17;0.55;;;21.90;43.80;;;;;;5119277;28;20040;-36
2024/01/12 08:07:16;;;;;;;1.10;0.65;;;21.80;43.80;;;;;;5119961;28;20027;-34
2024/01/12 08:09:42;;;;;;;2.45;0.70;;;21.90;43.80;;;;;;5111115;28;20031;-33
2024/01/12 08:12:08;;;;;;;0.82;0.70;;;21.90;43.70;;;;;;5117504;27;20028;-33
2024/01/12 08:14:34;;;;;;;0.68;0.60;;;21.90;43.70;;;;;;5112202;28;20097;-31
2024/01/12 08:17:02;;;;;;;0.77;0.50;;;21.90;43.70;;;;;;5105168;28;20020;-33
2024/01/12 08:19:28;;;;;;;1.45;0.40;;;21.80;43.70;;;;;;5112630;28;20069;-31
2024/01/12 08:21:54;;;;;;;0.65;0.50;;;21.80;43.80;;;;;;5106049;28;20523;-33
2024/01/12 08:24:20;;;;;;;0.70;0.63;;;21.90;43.70;;;;;;5114773;28;20057;-34
2024/01/12 08:26:47;;;;;;;0.60;0.50;;;21.90;43.50;;;;;;5112287;28;20099;-32
2024/01/12 08:29:13;;;;;;;0.80;0.60;;;21.90;43.50;;;;;;5116749;28;20029;-35
2024/01/12 08:31:39;;;;;;;0.90;0.60;;;21.90;43.60;;;;;;5111746;28;20024;-35
2024/01/12 08:34:05;;;;;;;3.70;0.70;;;21.80;43.60;;;;;;5114756;28;20109;-32
2024/01/12 08:36:31;;;;;;;1.20;0.60;;;21.80;43.70;;;;;;5111552;28;20050;-32
2024/01/12 08:38:57;;;;;;;1.02;0.45;;;21.80;43.60;;;;;;5109058;28;20101;-35
2024/01/12 08:41:23;;;;;;;1.08;0.70;;;21.90;43.60;;;;;;5108527;28;20020;-34
2024/01/12 08:43:52;;;;;;;0.70;0.57;;;21.90;43.50;;;;;;5107589;28;20027;-31
2024/01/12 08:46:19;;;;;;;1.45;0.70;;;21.80;43.50;;;;;;5116139;28;20053;-33
2024/01/12 08:48:48;;;;;;;1.25;0.70;;;21.80;43.60;;;;;;5112531;28;20061;-32
2024/01/12 08:51:14;;;;;;;2.38;0.70;;;21.80;43.60;;;;;;5112155;28;20136;-34
2024/01/12 08:53:41;;;;;;;0.70;0.50;;;21.80;43.50;;;;;;5113162;28;20040;-32
2024/01/12 08:56:07;;;;;;;2.10;0.60;;;21.90;43.40;;;;;;5119625;28;20087;-34
2024/01/12 08:58:34;;;;;;;2.92;0.70;;;21.90;43.40;;;;;;5112286;28;20128;-32
2024/01/12 09:01:01;;;;;;;0.80;0.53;;;21.80;43.50;;;;;;5111764;28;20111;-34
2024/01/12 09:03:27;;;;;;;;;;;21.80;43.60;;;;;;5108576;27;20020;-33
2024/01/12 09:05:54;;;;;;;1.42;0.60;;;21.80;43.50;;;;;;5114805;28;20375;-33
2024/01/12 09:08:20;;;;;;;1.65;0.60;;;21.80;43.60;;;;;;5109828;28;20024;-31
2024/01/12 09:10:46;;;;;;;3.63;0.73;;;21.90;43.50;;;;;;5112268;28;20064;-35
2024/01/12 09:13:12;;;;;;;1.25;0.52;;;21.90;43.50;;;;;;5110488;28;20024;-32
2024/01/12 09:15:38;;;;;;;0.90;0.52;;;21.80;43.50;;;;;;5125225;27;20752;-30
2024/01/12 09:18:06;;;;;;;0.68;0.50;;;21.80;43.50;;;;;;5114260;28;20035;-34
2024/01/12 09:20:32;;;;;;;1.63;0.50;;;21.80;43.50;;;;;;5112396;28;20040;-33
2024/01/12 09:22:59;;;;;;;0.45;0.45;;;21.80;43.50;;;;;;5105730;28;20023;-31
2024/01/12 09:25:25;;;;;;;0.80;0.65;;;21.90;43.40;;;;;;5113018;28;20024;-34
2024/01/12 09:27:52;;;;;;;1.48;0.60;;;21.80;43.50;;;;;;5113942;28;20047;-35
2024/01/12 09:30:20;;;;;;;0.65;0.47;;;21.80;43.50;;;;;;5119908;28;20038;-31
2024/01/12 09:32:47;;;;;;;1.25;0.60;;;21.80;43.60;;;;;;5111813;28;20039;-35
2024/01/12 09:35:13;;;;;;;0.90;0.60;;;21.80;43.50;;;;;;5115934;28;20032;-31
2024/01/12 09:37:39;;;;;;;1.80;0.80;;;21.80;43.50;;;;;;5108829;28;20044;-31
2024/01/12 09:40:06;;;;;;;1.35;0.50;;;21.80;43.40;;;;;;5114848;28;20036;-31
2024/01/12 09:42:33;;;;;;;1.58;0.50;;;21.80;43.50;;;;;;5111734;28;20059;-35
2024/01/12 09:45:02;;;;;;;1.10;0.60;;;21.70;43.50;;;;;;5111107;28;20024;-31
2024/01/12 09:47:28;;;;;;;1.63;0.70;;;21.80;43.50;;;;;;5106240;28;20115;-31
2024/01/12 09:49:54;;;;;;;0.80;0.55;;;21.80;43.50;;;;;;5120379;28;20492;-33
2024/01/12 09:52:20;;;;;;;1.38;0.75;;;21.80;43.40;;;;;;5094484;28;20040;-34
2024/01/12 09:54:46;;;;;;;0.75;0.60;;;21.80;43.50;;;;;;5110151;28;20058;-33
2024/01/12 09:57:13;;;;;;;1.08;0.70;;;21.80;43.50;;;;;;5109730;28;20028;-34
2024/01/12 09:59:39;;;;;;;1.25;0.50;;;21.70;43.50;;;;;;5115877;28;20055;-36
2024/01/12 10:02:08;;;;;;;1.02;0.57;;;21.80;43.60;;;;;;5109690;28;20027;-35
2024/01/12 10:04:35;;;;;;;0.68;0.60;;;21.80;43.50;;;;;;5113026;28;20040;-30
2024/01/12 10:07:01;;;;;;;1.17;0.60;;;21.80;43.50;;;;;;5115582;28;20039;-31
2024/01/12 10:09:28;;;;;;;0.63;0.60;;;21.80;43.50;;;;;;5115720;28;20028;-31
2024/01/12 10:11:54;;;;;;;0.82;0.52;;;21.80;43.50;;;;;;5107055;28;20028;-36
2024/01/12 10:14:25;;;;;;;1.20;0.70;;;21.70;43.60;;;;;;5119894;28;20034;-33
2024/01/12 10:16:57;;;;;;;0.90;0.60;;;21.80;43.60;;;;;;5120185;28;20298;-34
2024/01/12 10:19:24;;;;;;;0.88;0.60;;;21.80;43.60;;;;;;5118010;28;20036;-31
2024/01/12 10:21:50;;;;;;;1.10;0.60;;;21.80;43.50;;;;;;5118856;28;20059;-33
2024/01/12 10:24:20;;;;;;;0.70;0.60;;;21.80;43.50;;;;;;5114374;28;20641;-34
2024/01/12 10:26:46;;;;;;;4.30;1.00;;;21.80;43.60;;;;;;5119756;28;20676;-30
2024/01/12 10:29:16;;;;;;;0.90;0.40;;;21.70;43.60;;;;;;5118883;28;20933;-35
2024/01/12 10:31:43;;;;;;;0.75;0.50;;;21.80;43.60;;;;;;5112588;28;20024;-35
2024/01/12 10:34:11;;;;;;;;;;;21.80;43.60;;;;;;5122095;28;20035;-30
2024/01/12 10:36:37;;;;;;;0.77;0.68;;;21.80;43.60;;;;;;5116578;28;19911;-32
2024/01/12 10:39:04;;;;;;;0.98;0.70;;;21.80;43.60;;;;;;5112947;28;20044;-34
2024/01/12 10:41:31;;;;;;;0.70;0.50;;;21.80;43.70;;;;;;5127730;27;20084;-32
2024/01/12 10:43:58;;;;;;;0.60;0.60;;;21.80;43.70;;;;;;5112303;28;20047;-33
2024/01/12 10:46:35;;;;;;;0.80;0.60;;;21.80;43.80;;;;;;5114597;28;20095;-32
2024/01/12 10:49:17;;;;;;;0.60;0.60;;;21.80;43.70;;;;;;5116045;28;20028;-32
2024/01/12 10:52:13;;;;;;;0.77;0.70;;;21.80;43.70;;;;;;5110699;28;20095;-32
2024/01/12 10:54:55;;;;;;;0.57;0.50;;;21.80;43.70;;;;;;5101488;28;20043;-33
2024/01/12 10:57:21;;;;;;;0.80;0.63;;;21.80;43.80;;;;;;5116770;28;20661;-31
2024/01/12 10:59:47;;;;;;;1.02;0.60;;;21.80;43.80;;;;;;5119700;28;20044;-30
2024/01/12 11:02:14;;;;;;;0.55;0.50;;;21.80;43.70;;;;;;5109309;28;20028;-32
2024/01/12 11:04:40;;;;;;;1.77;0.70;;;21.80;43.60;;;;;;5117064;28;20096;-33
2024/01/12 11:07:06;;;;;;;2.15;0.60;;;21.80;43.60;;;;;;5107725;28;20080;-33
2024/01/12 11:09:33;;;;;;;0.80;0.65;;;21.80;43.70;;;;;;5129795;27;21476;-34
2024/01/12 11:12:10;;;;;;;1.10;0.65;;;21.80;43.80;;;;;;5107661;28;20054;-36
2024/01/12 11:14:36;;;;;;;0.83;0.73;;;21.80;43.70;;;;;;5106790;28;20103;-31
2024/01/12 11:17:05;;;;;;;1.17;0.82;;;21.80;43.60;;;;;;5114324;28;20039;-33
2024/01/12 11:19:32;;;;;;;1.63;0.80;;;21.80;43.60;;;;;;5112280;28;20216;-33
2024/01/12 11:22:08;;;;;;;0.60;0.52;;;21.80;43.70;;;;;;5111878;28;20095;-30
2024/01/12 11:24:37;;;;;;;1.30;0.70;;;21.80;43.70;;;;;;5115745;28;20259;-34
2024/01/12 11:27:04;;;;;;;0.80;0.63;;;21.80;43.70;;;;;;5119452;28;20984;-32
2024/01/12 11:29:37;;;;;;;0.90;0.50;;;21.80;43.60;;;;;;5113537;28;20054;-30
2024/01/12 11:32:03;;;;;;;1.17;0.60;;;21.90;43.70;;;;;;5112264;28;20019;-30
2024/01/12 11:34:34;;;;;;;0.77;0.60;;;21.80;43.60;;;;;;5112362;27;20024;-34
2024/01/12 11:37:01;;;;;;;1.45;0.70;;;21.80;43.60;;;;;;5110957;28;20034;-34
2024/01/12 11:39:41;;;;;;;;;;;21.80;43.80;;;;;;5109301;28;20036;-30
2024/01/12 11:42:07;;;;;;;1.38;0.80;;;21.80;43.70;;;;;;5113538;28;20276;-34
2024/01/12 11:44:34;;;;;;;0.68;0.60;;;21.90;43.70;;;;;;5112949;28;20031;-31
2024/01/12 11:47:01;;;;;;;1.08;0.70;;;21.90;43.70;;;;;;5109886;28;20066;-33
2024/01/12 11:49:27;;;;;;;0.90;0.60;;;21.80;43.70;;;;;;5118697;27;20053;-30
2024/01/12 11:52:04;;;;;;;2.42;0.70;;;21.80;43.90;;;;;;5118246;28;20043;-31
2024/01/12 11:54:30;;;;;;;1.05;0.80;;;21.80;44.10;;;;;;5123485;27;20049;-32
2024/01/12 11:56:56;;;;;;;2.65;0.57;;;21.90;44.00;;;;;;5115958;28;20031;-34
2024/01/12 11:59:23;;;;;;;0.93;0.60;;;21.90;43.80;;;;;;5117448;28;20047;-34
2024/01/12 12:01:49;;;;;;;1.40;0.80;;;21.90;43.80;;;;;;5121698;28;20031;-33
2024/01/12 12:04:18;;;;;;;0.93;0.70;;;21.90;43.90;;;;;;5115383;28;20030;-32
2024/01/12 12:06:47;;;;;;;1.73;0.77;;;21.90;43.90;;;;;;5113558;28;20028;-35
2024/01/12 12:09:14;;;;;;;1.15;0.60;;;21.90;43.90;;;;;;5116132;28;20054;-33
2024/01/12 12:11:40;;;;;;;2.75;0.80;;;21.90;43.70;;;;;;5119402;28;20020;-34
2024/01/12 12:14:06;;;;;;;1.25;0.68;;;21.90;43.60;;;;;;5109703;28;20083;-31
2024/01/12 12:16:34;;;;;;;1.80;0.90;;;21.90;43.60;;;;;;5117529;28;20016;-34
2024/01/12 12:19:00;;;;;;;1.05;0.75;;;21.90;43.60;;;;;;5115700;28;20063;-34
2024/01/12 12:21:26;;;;;;;0.90;0.50;;;21.90;43.70;;;;;;5114330;28;20042;-30
2024/01/12 12:23:52;;;;;;;1.75;0.68;;;21.90;43.80;;;;;;5111926;28;20028;-35
2024/01/12 12:26:19;;;;;;;1.10;0.90;;;21.90;43.70;;;;;;5122705;28;20091;-32
2024/01/12 12:28:45;;;;;;;1.08;0.82;;;22.00;43.60;;;;;;5121103;28;20077;-33
2024/01/12 12:31:12;;;;;;;5.32;0.85;;;22.00;43.60;;;;;;5120548;28;20023;-33
2024/01/12 12:33:42;;;;;;;2.97;0.90;;;21.90;43.70;;;;;;5118102;28;20035;-33
2024/01/12 12:36:09;;;;;;;6.32;0.90;;;21.90;43.90;;;;;;5096928;28;20023;-31
2024/01/12 12:38:39;;;;;;;1.55;0.85;;;21.90;44.40;;;;;;5112229;28;20066;-34
2024/01/12 12:41:11;;;;;;;1.58;0.80;;;22.00;43.80;;;;;;5117102;28;20051;-30
2024/01/12 12:43:40;;;;;;;2.05;1.10;;;22.00;43.70;;;;;;5113405;28;20026;-31
2024/01/12 12:46:07;;;;;;;0.90;0.75;;;22.00;43.70;;;;;;5110721;28;20028;-33